Northolt, United Kingdom

1:26 AM GMT on December 06, 2016 (GMT +0000)
Ruislip Manor | | Change Station

Elev 131 ft 51.57 °N, 0.41 °W | Updated 1 minute ago

Mist
Mist
34.2 °F
Feels Like 34 °F
N
0.0
Wind Variable Wind from NE
Gusts 0.0 mph

Today
High -- | Low -- °F
--% Chance of Precip.
Yesterday
High -- | Low -- °F
Precip. -- in
Pressure 30.30 in
Visibility 0.9 miles
Clouds
Windchill 34 °F
Dew Point 30 °F
Humidity 86%
Rainfall 0.00 in
Snow Depth Not available.
7:52 AM 3:53 PM
Waxing Crescent, 36% visible
METAR EGLL 060120Z AUTO 07002KT 1400 R09L/P1500 R09R/P1500 BR NCD 03/03 Q1026 TEMPO 1600
Pressure 30.30 in
Visibility 0.9 miles
Clouds
Windchill 34 °F
Dew Point 30 °F
Humidity 86%
Rainfall 0.00 in
Snow Depth Not available.
7:52 AM 3:53 PM
Waxing Crescent, 36% visible
METAR EGLL 060120Z AUTO 07002KT 1400 R09L/P1500 R09R/P1500 BR NCD 03/03 Q1026 TEMPO 1600

10-Day Weather Forecast

×

Almanac

Astronomy

Dec. 06, 2016 Rise Set
Actual Time
Civil Twilight
Nautical Twilight
Astronomical Twilight
Moon
Length of Visible Light
Length of Day
Tomorrow will be .
, % of the Moon is Illuminated

Today's Extremes

Country Highs Country Lows

Community

WunderPhotos

Upload Photos

1,955,893 photos uploaded!

WunderBlog® & News

Nearby

Air Quality

  Air Quality AQ Index Pollutant
Not available.

Snow Depth

Station Depth Elevation

Earthquake Activity

City Distance Mag. Time & Date
Minimum magnitude displayed is 2.5.

Coastal Water Temperatures

Place Temperature

Stations

Nearby Weather Stations

Station Location Temp. Windchill Dew Point Humidity Wind Precip. Elev Updated Type